Time;durP1;ratioP1;P1;durP2;ratioP2;P2;SDS_P1;SDS_P2;PMS_P1;PMS_P2;Temp;Humidity;BMP_temperature;BMP_pressure;BME280_temperature;BME280_humidity;BME280_pressure;Samples;Min_cycle;Max_cycle;Signal;HPM_P1;HPM_P2
2021/03/25 00:00:48;;;;;;;76.03;39.30;;;11.00;99.90;;;;;;5105487;28;20246;-67
2021/03/25 00:03:16;;;;;;;78.80;39.97;;;11.00;99.90;;;;;;5105198;28;20228;-67
2021/03/25 00:05:43;;;;;;;84.00;38.83;;;11.10;99.90;;;;;;5102716;28;20262;-67
2021/03/25 00:08:14;;;;;;;80.87;39.60;;;11.20;99.90;;;;;;5105046;28;20779;-67
2021/03/25 00:10:41;;;;;;;82.90;38.90;;;11.30;99.90;;;;;;5103241;28;20246;-67
2021/03/25 00:13:07;;;;;;;73.27;39.37;;;11.30;99.90;;;;;;5104738;28;20692;-67
2021/03/25 00:15:33;;;;;;;82.83;39.40;;;11.30;99.90;;;;;;5102610;28;20183;-67
2021/03/25 00:18:00;;;;;;;81.17;37.93;;;11.40;99.90;;;;;;5105014;28;20164;-67
2021/03/25 00:20:26;;;;;;;71.70;37.47;;;11.30;99.90;;;;;;5104902;28;20163;-67
2021/03/25 00:22:53;;;;;;;74.73;36.33;;;11.30;99.90;;;;;;5106343;28;20171;-67
2021/03/25 00:25:22;;;;;;;73.43;36.90;;;11.20;99.90;;;;;;5104846;28;20220;-67
2021/03/25 00:27:48;;;;;;;74.27;36.13;;;11.30;99.90;;;;;;5108106;28;20198;-67
2021/03/25 00:30:16;;;;;;;61.57;34.57;;;11.30;99.90;;;;;;5108440;28;20170;-67
2021/03/25 00:32:42;;;;;;;74.70;34.37;;;11.00;99.90;;;;;;5107498;28;20167;-67
2021/03/25 00:35:10;;;;;;;69.40;35.03;;;10.80;99.90;;;;;;5106534;28;20167;-67
2021/03/25 00:37:35;;;;;;;66.87;32.73;;;10.90;99.90;;;;;;5108216;28;20156;-67
2021/03/25 00:40:02;;;;;;;62.03;32.57;;;11.00;99.90;;;;;;5108581;28;20166;-67
2021/03/25 00:42:28;;;;;;;63.50;34.03;;;11.00;99.90;;;;;;5108289;28;20171;-67
2021/03/25 00:44:53;;;;;;;60.00;33.00;;;11.10;99.90;;;;;;5107972;28;20632;-67
2021/03/25 00:47:19;;;;;;;60.83;32.37;;;11.10;99.90;;;;;;5106384;28;20289;-67
2021/03/25 00:49:45;;;;;;;63.50;32.43;;;11.30;99.90;;;;;;5108569;28;20179;-67
2021/03/25 00:52:10;;;;;;;65.37;31.70;;;11.30;99.90;;;;;;5108104;28;20218;-67
2021/03/25 00:54:36;;;;;;;78.00;32.80;;;11.30;99.90;;;;;;5108125;28;20228;-67
2021/03/25 00:57:02;;;;;;;62.77;32.20;;;11.40;99.90;;;;;;5105133;28;20217;-67
2021/03/25 00:59:28;;;;;;;59.70;31.47;;;11.30;99.90;;;;;;5107709;28;20172;-67
2021/03/25 01:01:54;;;;;;;64.13;31.23;;;11.20;99.90;;;;;;5107871;28;20167;-67
2021/03/25 01:04:19;;;;;;;66.40;32.40;;;11.10;99.90;;;;;;5107996;28;20168;-67
2021/03/25 01:06:45;;;;;;;59.00;30.27;;;10.80;99.90;;;;;;5105287;28;20164;-67
2021/03/25 01:09:29;;;;;;;63.47;30.17;;;10.70;99.90;;;;;;5107788;28;20191;-67
2021/03/25 01:11:56;;;;;;;57.57;29.73;;;10.60;99.90;;;;;;5107746;28;20163;-67
2021/03/25 01:14:23;;;;;;;59.23;31.30;;;10.80;99.90;;;;;;5107541;28;20167;-67
2021/03/25 01:16:51;;;;;;;60.73;31.50;;;10.90;99.90;;;;;;5105203;28;20164;-67
2021/03/25 01:19:18;;;;;;;60.67;30.30;;;10.90;99.90;;;;;;5107742;28;20187;-67
2021/03/25 01:21:45;;;;;;;60.37;32.60;;;10.80;99.90;;;;;;5107675;28;20167;-67
2021/03/25 01:24:12;;;;;;;56.03;30.93;;;10.80;99.90;;;;;;5107286;28;20163;-67
2021/03/25 01:26:38;;;;;;;64.33;32.37;;;10.50;99.90;;;;;;5104687;28;20163;-67
2021/03/25 01:29:05;;;;;;;61.97;30.87;;;10.20;99.90;;;;;;5107028;28;20213;-67
2021/03/25 01:31:32;;;;;;;61.03;31.30;;;10.20;99.90;;;;;;5107642;28;20193;-67
2021/03/25 01:33:58;;;;;;;62.20;31.60;;;10.10;99.90;;;;;;5106345;28;20223;-67
2021/03/25 01:36:24;;;;;;;63.97;30.73;;;10.00;99.90;;;;;;5104812;28;20722;-67
2021/03/25 01:38:50;;;;;;;64.87;32.70;;;10.00;99.90;;;;;;5107188;28;20215;-67
2021/03/25 01:41:16;;;;;;;64.43;30.90;;;10.20;99.90;;;;;;5107624;28;20179;-67
2021/03/25 01:43:45;;;;;;;60.50;30.10;;;10.00;99.90;;;;;;5107040;28;20163;-67
2021/03/25 01:46:30;;;;;;;53.07;28.40;;;9.90;99.90;;;;;;5104420;28;20656;-67
2021/03/25 01:49:11;;;;;;;56.73;29.43;;;9.90;99.90;;;;;;5106932;28;20663;-67
2021/03/25 01:51:51;;;;;;;65.83;29.30;;;9.80;99.90;;;;;;5107102;28;20163;-67
2021/03/25 01:54:26;;;;;;;53.77;27.03;;;9.90;99.90;;;;;;5107064;28;20228;-67
2021/03/25 01:57:26;;;;;;;52.83;26.90;;;10.00;99.90;;;;;;5103717;28;20217;-67
2021/03/25 02:00:00;;;;;;;51.47;27.53;;;9.90;99.90;;;;;;5106571;28;20182;-67
2021/03/25 02:02:26;;;;;;;57.40;28.67;;;9.80;99.90;;;;;;5106925;28;20159;-67
2021/03/25 02:05:26;;;;;;;57.20;27.07;;;9.80;99.90;;;;;;5106360;28;20293;-67
2021/03/25 02:08:13;;;;;;;60.27;28.23;;;9.70;99.90;;;;;;5086480;28;20199;-67
2021/03/25 02:10:51;;;;;;;52.57;27.43;;;9.60;99.90;;;;;;5106733;28;20171;-67
2021/03/25 02:13:36;;;;;;;63.43;27.47;;;9.70;99.90;;;;;;5106466;28;20163;-67
2021/03/25 02:16:14;;;;;;;52.97;26.57;;;9.60;99.90;;;;;;5103832;28;20188;-67
2021/03/25 02:18:58;;;;;;;52.30;27.57;;;9.50;99.90;;;;;;5106693;28;20159;-67
2021/03/25 02:21:42;;;;;;;55.97;27.33;;;9.40;99.90;;;;;;5106612;28;20167;-67
2021/03/25 02:24:26;;;;;;;54.73;26.13;;;9.40;99.90;;;;;;5106586;28;20197;-67
2021/03/25 02:27:11;;;;;;;58.13;28.20;;;9.50;99.90;;;;;;5103765;28;20169;-67
2021/03/25 02:30:00;;;;;;;60.97;27.47;;;9.50;99.90;;;;;;5106414;28;20201;-67
2021/03/25 02:32:36;;;;;;;53.80;28.03;;;9.50;99.90;;;;;;5098292;28;20221;-67
2021/03/25 02:35:17;;;;;;;62.30;28.80;;;9.80;99.90;;;;;;5105036;28;20218;-68
2021/03/25 02:37:45;;;;;;;61.07;27.87;;;10.10;99.90;;;;;;5106349;28;20167;-67
2021/03/25 02:40:25;;;;;;;52.27;28.03;;;9.80;99.90;;;;;;5106304;28;20167;-67
2021/03/25 02:43:03;;;;;;;56.37;28.23;;;9.80;99.90;;;;;;5105850;28;20167;-67
2021/03/25 02:45:38;;;;;;;62.57;28.20;;;9.80;99.90;;;;;;5103493;28;20159;-67
2021/03/25 02:48:10;;;;;;;69.83;28.27;;;9.90;99.90;;;;;;5105864;28;20179;-67
2021/03/25 02:50:51;;;;;;;57.77;28.13;;;10.10;99.90;;;;;;5106187;28;20164;-67
2021/03/25 02:53:32;;;;;;;53.77;26.70;;;10.20;99.90;;;;;;5106159;28;20173;-67
2021/03/25 02:56:04;;;;;;;58.33;26.33;;;10.10;99.90;;;;;;5103225;28;20235;-67
2021/03/25 02:58:30;;;;;;;61.07;28.00;;;10.00;99.90;;;;;;5105525;28;20222;-67
2021/03/25 03:01:07;;;;;;;62.40;27.27;;;9.80;99.90;;;;;;5105990;28;20217;-67
2021/03/25 03:03:40;;;;;;;62.77;27.33;;;9.80;99.90;;;;;;5104645;28;20579;-67
2021/03/25 03:06:11;;;;;;;63.33;33.35;;;10.00;99.90;;;;;;5102445;28;20396;-67
2021/03/25 03:08:41;;;;;;;52.63;28.53;;;10.10;99.90;;;;;;5106019;28;20197;-67
2021/03/25 03:11:26;;;;;;;54.73;28.30;;;10.00;99.90;;;;;;5105806;28;20170;-67
2021/03/25 03:14:00;;;;;;;52.03;28.87;;;10.00;99.90;;;;;;5105546;28;20178;-67
2021/03/25 03:16:32;;;;;;;63.80;28.93;;;10.10;99.90;;;;;;5103127;28;20169;-67
2021/03/25 03:19:15;;;;;;;51.77;25.93;;;9.90;99.90;;;;;;5105642;28;20273;-67
2021/03/25 03:21:46;;;;;;;56.97;27.50;;;10.00;99.90;;;;;;5105718;28;20220;-67
2021/03/25 03:24:13;;;;;;;64.10;29.43;;;10.00;99.90;;;;;;5105702;28;20167;-67
2021/03/25 03:26:48;;;;;;;53.10;27.63;;;10.00;99.90;;;;;;5102786;28;20171;-67
2021/03/25 03:29:16;;;;;;;53.03;27.43;;;9.90;99.90;;;;;;5105148;28;20190;-67
2021/03/25 03:31:50;;;;;;;61.10;29.40;;;9.80;99.90;;;;;;5105770;28;20212;-67
2021/03/25 03:34:23;;;;;;;55.27;27.03;;;9.90;99.90;;;;;;5105822;28;20160;-67
2021/03/25 03:36:51;;;;;;;55.53;27.17;;;9.90;99.90;;;;;;5103005;28;20167;-67
2021/03/25 03:39:22;;;;;;;57.43;28.37;;;10.00;99.90;;;;;;5105587;28;20163;-67
2021/03/25 03:41:53;;;;;;;56.37;28.67;;;10.10;99.90;;;;;;5105677;28;20171;-67
2021/03/25 03:44:25;;;;;;;58.03;28.00;;;10.10;99.90;;;;;;5105756;28;20171;-67
2021/03/25 03:46:53;;;;;;;53.83;27.33;;;10.00;99.90;;;;;;5102681;28;20231;-67
2021/03/25 03:49:31;;;;;;;55.70;28.87;;;10.10;99.90;;;;;;5105448;28;20236;-67
2021/03/25 03:52:02;;;;;;;51.53;26.90;;;10.10;99.90;;;;;;5105512;28;20162;-67
2021/03/25 03:54:28;;;;;;;55.47;28.13;;;9.90;99.90;;;;;;5105621;28;20162;-67
2021/03/25 03:57:35;;;;;;;67.30;27.93;;;9.80;99.90;;;;;;5102497;28;20275;-67
2021/03/25 04:00:04;;;;;;;50.67;27.30;;;9.70;99.90;;;;;;5100923;28;20187;-67
2021/03/25 04:02:41;;;;;;;53.73;26.80;;;9.50;99.90;;;;;;5109225;28;20165;-67
2021/03/25 04:05:06;;;;;;;63.23;26.47;;;9.40;99.90;;;;;;5107325;28;20186;-68
2021/03/25 04:07:36;;;;;;;57.80;28.17;;;9.30;99.90;;;;;;5108754;28;20648;-67
2021/03/25 04:10:17;;;;;;;55.60;28.03;;;9.50;99.90;;;;;;5109105;28;20164;-67
2021/03/25 04:12:52;;;;;;;53.37;26.83;;;9.50;99.90;;;;;;5108709;28;20234;-67
2021/03/25 04:15:28;;;;;;;51.13;27.73;;;9.20;99.90;;;;;;5106462;28;20151;-67
2021/03/25 04:18:25;;;;;;;52.57;26.73;;;9.00;99.90;;;;;;5108781;28;20166;-67
2021/03/25 04:20:59;;;;;;;55.80;26.17;;;9.00;99.90;;;;;;5109046;28;20159;-67
2021/03/25 04:23:26;;;;;;;56.43;26.50;;;9.00;99.90;;;;;;5108938;28;20185;-67
2021/03/25 04:26:10;;;;;;;70.53;27.80;;;9.20;99.90;;;;;;5106122;28;20196;-67
2021/03/25 04:28:47;;;;;;;58.93;27.87;;;9.40;99.90;;;;;;5108405;28;20672;-67
2021/03/25 04:31:13;;;;;;;54.40;28.03;;;9.30;99.90;;;;;;5108935;28;20227;-67
2021/03/25 04:33:39;;;;;;;45.60;25.30;;;9.30;99.90;;;;;;5108530;28;20170;-67
2021/03/25 04:36:13;;;;;;;56.07;26.27;;;9.30;99.90;;;;;;5105664;28;20167;-67
2021/03/25 04:38:40;;;;;;;52.47;26.23;;;9.10;99.90;;;;;;5108289;28;20579;-67
2021/03/25 04:41:08;;;;;;;59.75;29.30;;;9.30;99.90;;;;;;5108211;28;20898;-67
2021/03/25 04:43:34;;;;;;;56.07;27.03;;;9.30;99.90;;;;;;5108247;28;20225;-67
2021/03/25 04:46:27;;;;;;;51.07;26.50;;;9.30;99.90;;;;;;5105313;28;20168;-67
2021/03/25 04:48:56;;;;;;;52.40;26.03;;;9.20;99.90;;;;;;5108154;28;20202;-67
2021/03/25 04:51:24;;;;;;;63.75;32.42;;;9.10;99.90;;;;;;5107296;28;20409;-67
2021/03/25 04:53:52;;;;;;;49.83;27.50;;;9.30;99.90;;;;;;5108046;28;20162;-67
2021/03/25 04:56:22;;;;;;;53.23;27.20;;;9.20;99.90;;;;;;5105019;28;20193;-67
2021/03/25 04:58:50;;;;;;;60.75;31.15;;;9.30;99.90;;;;;;5107392;28;20409;-67
2021/03/25 05:01:19;;;;;;;59.20;29.20;;;9.50;99.90;;;;;;5108052;28;20167;-67
2021/03/25 05:03:47;;;;;;;51.83;28.57;;;9.70;99.90;;;;;;5107895;28;20171;-66
2021/03/25 05:06:21;;;;;;;62.43;27.73;;;9.90;99.90;;;;;;5105244;28;20182;-66
2021/03/25 05:08:49;;;;;;;64.07;33.42;;;9.80;99.90;;;;;;5105858;28;20516;-67
2021/03/25 05:11:21;;;;;;;54.57;28.90;;;9.70;99.90;;;;;;5108095;28;20158;-67
2021/03/25 05:13:47;;;;;;;61.33;28.57;;;9.60;99.90;;;;;;5107422;28;20167;-67
2021/03/25 05:16:44;;;;;;;53.37;28.03;;;9.70;99.90;;;;;;5105151;28;20187;-67
2021/03/25 05:19:19;;;;;;;53.70;28.23;;;9.60;99.90;;;;;;5107625;28;20152;-67
2021/03/25 05:22:06;;;;;;;54.43;25.70;;;9.50;99.90;;;;;;5107834;28;20155;-66
2021/03/25 05:24:46;;;;;;;53.43;25.77;;;9.40;99.90;;;;;;5107481;28;20169;-66
2021/03/25 05:27:28;;;;;;;53.23;24.70;;;9.50;99.90;;;;;;5104784;28;20232;-66
2021/03/25 05:29:57;;;;;;;61.70;24.97;;;9.50;99.90;;;;;;5107475;28;20169;-67
2021/03/25 05:32:27;;;;;;;48.87;24.60;;;9.50;99.90;;;;;;5107614;28;20162;-67
2021/03/25 05:34:57;;;;;;;52.50;25.07;;;9.60;99.90;;;;;;5106944;28;20151;-67
2021/03/25 05:37:23;;;;;;;50.67;24.27;;;9.60;99.90;;;;;;5105665;28;20636;-67
2021/03/25 05:39:48;;;;;;;48.23;24.07;;;9.50;99.90;;;;;;5107634;28;20171;-67
2021/03/25 05:42:33;;;;;;;60.97;25.00;;;9.40;99.90;;;;;;5107464;28;20171;-67
2021/03/25 05:45:21;;;;;;;56.50;25.83;;;9.60;99.90;;;;;;5106068;28;20159;-68
2021/03/25 05:48:05;;;;;;;51.63;24.70;;;9.70;99.90;;;;;;5106929;28;20195;-67
2021/03/25 05:51:02;;;;;;;53.37;23.57;;;9.60;99.90;;;;;;5106933;28;20156;-67
2021/03/25 05:53:38;;;;;;;45.67;23.30;;;9.30;99.90;;;;;;5107047;28;20202;-67
2021/03/25 05:56:15;;;;;;;46.73;24.80;;;9.20;99.90;;;;;;5104281;28;20154;-67
2021/03/25 05:58:49;;;;;;;51.93;25.13;;;9.10;99.90;;;;;;5106474;28;20194;-67
2021/03/25 06:01:26;;;;;;;53.77;25.23;;;9.00;99.90;;;;;;5107365;28;20171;-67
2021/03/25 06:04:02;;;;;;;50.00;25.03;;;9.00;99.90;;;;;;5106679;28;20167;-67
2021/03/25 06:07:00;;;;;;;58.57;25.73;;;9.20;99.90;;;;;;5104244;28;20583;-67
2021/03/25 06:10:03;;;;;;;49.07;24.77;;;9.20;99.90;;;;;;5106919;28;20648;-67
2021/03/25 06:12:47;;;;;;;59.57;25.37;;;9.30;99.90;;;;;;5106536;28;20163;-67
2021/03/25 06:15:40;;;;;;;54.27;23.53;;;9.10;99.90;;;;;;5104036;28;20231;-68
2021/03/25 06:18:22;;;;;;;56.60;25.17;;;9.20;99.90;;;;;;5106338;28;20174;-67
2021/03/25 06:21:08;;;;;;;53.53;25.70;;;9.20;99.90;;;;;;5106357;28;20192;-67
2021/03/25 06:23:56;;;;;;;52.63;25.10;;;9.30;99.90;;;;;;5074953;28;20313;-67
2021/03/25 06:26:38;;;;;;;52.40;24.70;;;9.30;99.90;;;;;;5103898;28;20182;-67
2021/03/25 06:29:22;;;;;;;47.23;24.43;;;9.20;99.90;;;;;;5105665;28;20221;-67
2021/03/25 06:32:04;;;;;;;56.30;25.63;;;9.20;99.90;;;;;;5106592;28;20705;-68
2021/03/25 06:34:35;;;;;;;54.13;24.43;;;9.20;99.90;;;;;;5104894;28;20187;-68
2021/03/25 06:37:27;;;;;;;58.60;31.80;;;9.10;99.90;;;;;;5102232;28;20419;-67
2021/03/25 06:39:55;;;;;;;58.87;28.00;;;9.10;99.90;;;;;;5106108;28;20163;-68
2021/03/25 06:42:38;;;;;;;59.43;28.93;;;9.20;99.90;;;;;;5106346;28;20189;-67
2021/03/25 06:45:17;;;;;;;60.00;30.77;;;9.30;99.90;;;;;;5104162;28;20413;-68
2021/03/25 06:47:54;;;;;;;58.70;28.43;;;9.10;99.90;;;;;;5106012;28;20236;-68
2021/03/25 06:50:33;;;;;;;52.80;26.50;;;9.10;99.90;;;;;;5106190;28;20159;-68
2021/03/25 06:53:24;;;;;;;57.63;27.27;;;9.30;99.90;;;;;;5106045;28;20170;-67
2021/03/25 06:55:55;;;;;;;59.37;25.60;;;9.30;99.90;;;;;;5103504;28;20163;-68
2021/03/25 06:58:27;;;;;;;57.10;25.43;;;9.20;99.90;;;;;;5105567;28;20261;-68
2021/03/25 07:01:17;;;;;;;62.67;25.20;;;9.10;99.90;;;;;;5106011;28;20167;-68
2021/03/25 07:03:44;;;;;;;55.20;26.07;;;9.10;99.90;;;;;;5105998;28;20205;-68
2021/03/25 07:06:10;;;;;;;56.57;27.70;;;9.10;99.90;;;;;;5103074;28;20690;-68
2021/03/25 07:08:35;;;;;;;53.50;28.90;;;9.00;99.90;;;;;;5105677;28;20325;-68
2021/03/25 07:11:16;;;;;;;53.87;27.47;;;8.90;99.90;;;;;;5105718;28;20160;-68
2021/03/25 07:13:54;;;;;;;57.47;27.30;;;9.00;99.90;;;;;;5105571;28;20220;-68
2021/03/25 07:16:20;;;;;;;54.40;26.27;;;8.90;99.90;;;;;;5103177;28;20198;-68
2021/03/25 07:19:05;;;;;;;57.37;28.37;;;8.90;99.90;;;;;;5105788;28;20167;-68
2021/03/25 07:21:43;;;;;;;66.90;30.70;;;9.00;99.90;;;;;;5105789;28;20160;-68
2021/03/25 07:24:25;;;;;;;57.93;29.47;;;9.30;99.90;;;;;;5105497;28;20361;-68
2021/03/25 07:27:08;;;;;;;65.97;28.83;;;9.60;99.90;;;;;;5102841;28;20703;-69
2021/03/25 07:29:37;;;;;;;61.97;30.13;;;9.70;99.90;;;;;;5105453;28;20237;-68
2021/03/25 07:32:05;;;;;;;63.40;29.80;;;9.50;99.90;;;;;;5105852;28;20163;-68
2021/03/25 07:34:44;;;;;;;62.63;31.20;;;9.60;99.90;;;;;;5109739;28;20193;-67
2021/03/25 07:37:12;;;;;;;58.80;29.33;;;9.50;99.90;;;;;;5106986;28;20712;-66
2021/03/25 07:39:49;;;;;;;63.80;30.70;;;9.50;99.90;;;;;;5109854;28;20170;-67
2021/03/25 07:42:33;;;;;;;63.63;31.37;;;9.50;99.90;;;;;;5108445;28;20519;-67
2021/03/25 07:45:23;;;;;;;60.60;30.50;;;9.70;99.90;;;;;;5108365;28;20174;-67
2021/03/25 07:47:51;;;;;;;59.67;30.20;;;9.60;99.90;;;;;;5109508;28;20187;-67
2021/03/25 07:50:31;;;;;;;63.77;28.93;;;9.70;99.90;;;;;;5109692;28;20163;-67
2021/03/25 07:52:57;;;;;;;56.43;27.47;;;9.80;99.90;;;;;;5109393;28;20155;-67
2021/03/25 07:55:23;;;;;;;55.03;28.10;;;9.70;99.90;;;;;;5106924;28;20376;-68
2021/03/25 07:57:51;;;;;;;50.47;27.97;;;9.80;99.90;;;;;;5108685;28;20231;-68
2021/03/25 08:00:26;;;;;;;51.80;26.20;;;10.20;99.90;;;;;;5109381;28;20174;-68
2021/03/25 08:03:21;;;;;;;50.60;24.40;;;10.10;99.90;;;;;;5109731;28;20163;-68
2021/03/25 08:05:49;;;;;;;46.07;24.87;;;10.20;99.90;;;;;;5126774;28;20167;-68
2021/03/25 08:08:35;;;;;;;48.30;25.47;;;10.00;99.90;;;;;;5129459;28;20193;-68
2021/03/25 08:11:09;;;;;;;42.87;23.47;;;10.00;99.90;;;;;;5129368;28;20159;-68
2021/03/25 08:13:36;;;;;;;49.03;24.90;;;10.10;99.90;;;;;;5129103;28;20171;-68
2021/03/25 08:16:07;;;;;;;42.67;23.40;;;10.20;99.90;;;;;;5126579;28;20194;-68
2021/03/25 08:18:59;;;;;;;39.03;23.37;;;10.20;99.90;;;;;;5129002;28;20528;-68
2021/03/25 08:21:37;;;;;;;39.43;23.67;;;10.30;99.90;;;;;;5128670;28;20179;-67
2021/03/25 08:24:37;;;;;;;40.93;22.80;;;10.50;99.90;;;;;;5129083;28;20242;-68
2021/03/25 08:27:19;;;;;;;44.50;23.70;;;10.50;99.90;;;;;;5126315;28;20171;-68
2021/03/25 08:30:22;;;;;;;46.43;23.53;;;10.40;99.90;;;;;;5128788;28;20175;-68
2021/03/25 08:33:10;;;;;;;38.47;21.63;;;10.30;99.90;;;;;;5129131;28;20166;-67
2021/03/25 08:36:01;;;;;;;36.10;22.07;;;10.40;99.90;;;;;;5126495;28;20199;-66
2021/03/25 08:38:52;;;;;;;40.90;22.00;;;10.30;99.90;;;;;;5128988;28;20170;-67
2021/03/25 08:41:30;;;;;;;38.83;22.10;;;10.30;99.90;;;;;;5129124;28;20178;-67
2021/03/25 08:44:11;;;;;;;39.10;24.27;;;10.30;99.90;;;;;;5128158;28;20166;-67
2021/03/25 08:46:50;;;;;;;38.03;23.03;;;10.40;99.90;;;;;;5126132;28;20166;-67
2021/03/25 08:49:34;;;;;;;41.23;21.47;;;10.40;99.90;;;;;;5128402;28;20194;-67
2021/03/25 08:52:05;;;;;;;41.83;22.63;;;10.50;99.90;;;;;;5128424;28;20191;-67
2021/03/25 08:54:43;;;;;;;48.13;24.07;;;10.50;99.90;;;;;;5128723;28;20158;-68
2021/03/25 08:57:18;;;;;;;39.80;22.90;;;10.70;99.90;;;;;;5125521;28;20609;-67
2021/03/25 08:59:53;;;;;;;41.53;23.83;;;10.60;99.90;;;;;;5128068;28;20685;-67
2021/03/25 09:02:33;;;;;;;37.27;23.23;;;10.90;99.90;;;;;;5128561;28;20171;-67
2021/03/25 09:05:17;;;;;;;45.47;25.53;;;10.80;99.90;;;;;;5127309;28;20178;-67
2021/03/25 09:07:43;;;;;;;43.77;25.73;;;11.00;99.90;;;;;;5128306;28;20633;-67
2021/03/25 09:10:32;;;;;;;38.50;23.50;;;11.00;99.90;;;;;;5126883;28;20154;-67
2021/03/25 09:12:58;;;;;;;41.93;23.63;;;11.00;99.90;;;;;;5127694;28;20159;-67
2021/03/25 09:15:24;;;;;;;40.70;22.83;;;11.10;99.90;;;;;;5125716;28;20507;-67
2021/03/25 09:18:13;;;;;;;37.20;23.23;;;11.10;99.90;;;;;;5128030;28;20194;-68
2021/03/25 09:20:45;;;;;;;37.97;24.30;;;11.50;99.90;;;;;;5128156;28;20364;-68
2021/03/25 09:23:29;;;;;;;39.83;24.20;;;11.70;99.90;;;;;;5128113;28;20174;-68
2021/03/25 09:25:56;;;;;;;42.00;22.77;;;11.80;99.90;;;;;;5124986;28;20174;-67
2021/03/25 09:29:03;;;;;;;39.40;22.30;;;11.50;99.90;;;;;;5127275;28;20187;-67
2021/03/25 09:31:31;;;;;;;34.13;21.53;;;11.30;99.90;;;;;;5127965;28;20237;-68
2021/03/25 09:33:59;;;;;;;36.57;22.47;;;11.50;99.90;;;;;;5127474;27;20667;-68
2021/03/25 09:36:34;;;;;;;35.83;22.33;;;11.20;99.90;;;;;;5124999;28;20233;-69
2021/03/25 09:39:00;;;;;;;36.10;22.13;;;11.10;99.90;;;;;;5127392;28;20166;-68
2021/03/25 09:41:26;;;;;;;34.90;20.47;;;11.30;99.90;;;;;;5127341;28;20163;-68
2021/03/25 09:44:17;;;;;;;31.00;20.67;;;11.30;99.90;;;;;;5126962;28;20216;-68
2021/03/25 09:46:43;;;;;;;28.40;18.80;;;11.30;99.90;;;;;;5124936;28;20177;-66
2021/03/25 09:49:46;;;;;;;30.20;19.13;;;11.10;99.90;;;;;;5126933;28;20492;-67
2021/03/25 09:52:22;;;;;;;25.07;17.63;;;10.90;99.90;;;;;;5127166;28;20192;-68
2021/03/25 09:54:53;;;;;;;25.63;17.87;;;10.70;99.90;;;;;;5126513;28;20603;-68
2021/03/25 09:57:31;;;;;;;26.83;17.60;;;10.50;99.90;;;;;;5124799;28;20378;-68
2021/03/25 10:00:11;;;;;;;26.47;17.43;;;10.70;99.90;;;;;;5126551;28;20181;-68
2021/03/25 10:02:44;;;;;;;22.90;16.90;;;11.10;99.90;;;;;;5127141;28;20167;-69
2021/03/25 10:05:35;;;;;;;25.07;17.23;;;11.30;99.90;;;;;;5125129;28;20154;-69
2021/03/25 10:08:11;;;;;;;25.73;17.27;;;11.60;99.90;;;;;;5126726;28;20183;-68
2021/03/25 10:10:46;;;;;;;24.83;16.07;;;11.80;99.90;;;;;;5126887;28;20154;-69
2021/03/25 10:13:16;;;;;;;27.90;16.00;;;11.80;99.90;;;;;;5126335;28;20158;-68
2021/03/25 10:16:05;;;;;;;23.83;15.50;;;11.80;99.90;;;;;;5124200;28;20203;-68
2021/03/25 10:18:30;;;;;;;25.83;16.43;;;11.70;99.90;;;;;;5127000;27;20163;-68
2021/03/25 10:21:13;;;;;;;24.73;16.47;;;11.80;99.90;;;;;;5126477;28;20192;-68
2021/03/25 10:23:44;;;;;;;27.53;16.13;;;12.10;99.90;;;;;;5126676;28;20222;-68
2021/03/25 10:26:10;;;;;;;21.27;16.13;;;12.50;99.90;;;;;;5123698;28;20162;-68
2021/03/25 10:28:44;;;;;;;20.47;14.90;;;12.70;99.90;;;;;;5124633;28;20259;-68
2021/03/25 10:31:19;;;;;;;25.42;15.02;;;12.70;99.90;;;;;;5126505;28;20232;-68
2021/03/25 10:33:47;;;;;;;23.17;15.15;;;12.80;99.90;;;;;;5125176;28;20158;-69
2021/03/25 10:36:19;;;;;;;17.85;13.93;;;12.90;99.90;;;;;;5122557;28;20158;-70
2021/03/25 10:38:51;;;;;;;18.55;13.07;;;13.10;99.90;;;;;;5126475;28;20166;-69
2021/03/25 10:41:23;;;;;;;19.63;12.73;;;13.30;99.90;;;;;;5126624;28;20167;-71
2021/03/25 10:43:50;;;;;;;18.75;13.82;;;13.30;99.90;;;;;;5126140;28;20695;-70
2021/03/25 10:46:37;;;;;;;14.85;12.82;;;13.20;99.90;;;;;;5124104;28;20230;-70
2021/03/25 10:49:06;;;;;;;18.40;12.60;;;13.10;99.90;;;;;;5125714;28;20186;-69
2021/03/25 10:51:38;;;;;;;14.38;10.68;;;13.10;99.90;;;;;;5126295;28;20183;-69
2021/03/25 10:54:14;;;;;;;18.58;12.40;;;13.20;99.90;;;;;;5124483;28;20158;-69
2021/03/25 10:56:40;;;;;;;14.65;12.25;;;13.10;99.90;;;;;;5123435;28;20202;-70
2021/03/25 10:59:20;;;;;;;18.70;12.07;;;13.10;99.90;;;;;;5124977;28;20178;-70
2021/03/25 11:01:52;;;;;;;21.25;12.02;;;13.20;99.90;;;;;;5124918;28;20170;-70
2021/03/25 11:04:22;;;;;;;14.43;11.25;;;13.60;99.90;;;;;;5126331;28;20185;-70
2021/03/25 11:06:49;;;;;;;19.60;11.70;;;13.70;99.90;;;;;;5122282;28;20167;-70
2021/03/25 11:09:28;;;;;;;15.70;10.77;;;13.70;99.90;;;;;;5126051;28;20214;-69
2021/03/25 11:12:11;;;;;;;17.70;11.68;;;13.70;99.90;;;;;;5125996;28;20159;-69
2021/03/25 11:14:44;;;;;;;12.48;10.32;;;13.80;99.90;;;;;;5125650;28;20166;-70
2021/03/25 11:17:27;;;;;;;20.83;10.80;;;13.70;99.90;;;;;;5123245;28;20162;-70
2021/03/25 11:19:55;;;;;;;14.52;10.65;;;13.70;99.90;;;;;;5125969;28;20154;-70
2021/03/25 11:22:22;;;;;;;12.60;8.68;;;14.00;99.90;;;;;;5126020;28;20216;-69
2021/03/25 11:24:50;;;;;;;15.23;9.60;;;14.10;99.90;;;;;;5123605;28;20387;-70
2021/03/25 11:27:20;;;;;;;12.52;8.98;;;13.90;99.90;;;;;;5123308;28;20161;-70
2021/03/25 11:29:47;;;;;;;12.13;8.30;;;13.70;99.90;;;;;;5125491;28;20194;-69
2021/03/25 11:32:26;;;;;;;15.38;10.32;;;13.70;99.90;;;;;;5125954;28;20163;-70
2021/03/25 11:34:53;;;;;;;14.77;10.65;;;13.60;99.90;;;;;;5125223;28;20407;-70
2021/03/25 11:37:36;;;;;;;12.18;9.95;;;14.00;99.90;;;;;;5123730;28;20171;-70
2021/03/25 11:40:06;;;;;;;13.43;8.90;;;14.20;99.90;;;;;;5125704;28;20162;-70
2021/03/25 11:42:32;;;;;;;12.70;9.93;;;14.20;99.90;;;;;;5125824;28;20227;-70
2021/03/25 11:44:59;;;;;;;13.63;8.77;;;14.20;99.90;;;;;;5124547;28;20620;-69
2021/03/25 11:47:30;;;;;;;13.30;8.85;;;14.10;99.90;;;;;;5124327;28;20186;-70
2021/03/25 11:49:56;;;;;;;11.00;8.57;;;13.90;99.90;;;;;;5125664;28;20208;-70
2021/03/25 11:52:22;;;;;;;12.15;9.18;;;13.80;99.90;;;;;;5125660;28;20246;-70
2021/03/25 11:55:00;;;;;;;15.68;9.52;;;13.60;99.90;;;;;;5125775;28;20159;-71
2021/03/25 11:57:33;;;;;;;12.68;9.50;;;13.50;99.90;;;;;;5122752;28;20210;-70
2021/03/25 12:00:13;;;;;;;13.55;9.98;;;13.50;99.90;;;;;;5125286;28;20190;-70
2021/03/25 12:02:46;;;;;;;11.93;10.00;;;13.40;99.90;;;;;;5125789;28;20169;-70
2021/03/25 12:05:27;;;;;;;13.57;9.43;;;13.50;99.90;;;;;;5123314;28;20169;-70
2021/03/25 12:08:17;;;;;;;15.27;10.20;;;13.50;99.90;;;;;;5125447;28;20219;-70
2021/03/25 12:10:44;;;;;;;13.30;9.77;;;13.80;99.90;;;;;;5124347;28;20224;-70
2021/03/25 12:13:11;;;;;;;17.33;9.93;;;14.10;99.90;;;;;;5125255;28;20155;-70
2021/03/25 12:15:38;;;;;;;12.40;9.82;;;14.30;99.90;;;;;;5122777;28;20155;-70
2021/03/25 12:18:43;;;;;;;15.07;9.30;;;14.30;99.90;;;;;;5125615;28;20169;-70
2021/03/25 12:21:10;;;;;;;10.57;9.30;;;14.40;99.90;;;;;;5129306;28;20215;-70
2021/03/25 12:23:39;;;;;;;13.95;10.45;;;14.20;99.90;;;;;;5129330;28;20197;-70
2021/03/25 12:26:10;;;;;;;13.48;10.52;;;14.20;99.90;;;;;;5125062;28;20206;-70
2021/03/25 12:28:35;;;;;;;12.85;10.40;;;14.40;99.90;;;;;;5128822;28;20213;-69
2021/03/25 12:31:01;;;;;;;17.50;10.60;;;14.50;99.90;;;;;;5128937;28;20170;-69
2021/03/25 12:33:29;;;;;;;11.93;9.05;;;14.60;99.90;;;;;;5128918;28;20163;-70
2021/03/25 12:35:56;;;;;;;12.95;9.48;;;14.60;99.90;;;;;;5126315;28;20159;-71
2021/03/25 12:38:22;;;;;;;11.75;8.93;;;14.30;99.90;;;;;;5128970;28;20167;-70
2021/03/25 12:40:49;;;;;;;13.73;9.68;;;14.20;99.90;;;;;;5129101;28;20176;-70
2021/03/25 12:43:20;;;;;;;10.73;8.98;;;14.10;99.90;;;;;;5127329;28;20162;-71
2021/03/25 12:45:50;;;;;;;13.80;10.65;;;14.20;99.90;;;;;;5126173;28;20631;-71
2021/03/25 12:48:18;;;;;;;14.82;10.93;;;14.50;99.90;;;;;;5128742;28;20186;-71
2021/03/25 12:50:44;;;;;;;13.35;9.70;;;14.50;99.90;;;;;;5127449;28;20757;-71
2021/03/25 12:53:09;;;;;;;14.38;10.85;;;14.40;99.90;;;;;;5127392;28;20159;-70
2021/03/25 12:55:35;;;;;;;15.63;11.98;;;14.20;99.90;;;;;;5126019;28;20155;-71
2021/03/25 12:58:02;;;;;;;19.52;11.50;;;14.30;99.90;;;;;;5128038;28;20270;-70
2021/03/25 13:00:36;;;;;;;15.88;11.07;;;14.50;99.90;;;;;;5128373;28;20192;-71
2021/03/25 13:03:03;;;;;;;18.67;11.63;;;14.80;99.90;;;;;;5128385;28;20177;-70
2021/03/25 13:05:29;;;;;;;12.48;8.52;;;14.80;99.90;;;;;;5125950;28;20241;-70
2021/03/25 13:07:55;;;;;;;8.25;7.53;;;15.00;99.90;;;;;;5127944;28;20190;-71